Time;durP1;ratioP1;P1;durP2;ratioP2;P2;SDS_P1;SDS_P2;PMS_P1;PMS_P2;Temp;Humidity;BMP_temperature;BMP_pressure;BME280_temperature;BME280_humidity;BME280_pressure;Samples;Min_cycle;Max_cycle;Signal;HPM_P1;HPM_P2
2022/01/21 00:00:58;;;;;;;4.80;1.20;;;;;;;-2.90;84.72;99365.16;103575;1302;24316;-28
2022/01/21 00:03:24;;;;;;;4.00;2.00;;;;;;;-2.82;84.00;99365.59;103535;1300;24180;-28
2022/01/21 00:05:50;;;;;;;4.40;1.30;;;;;;;-3.17;84.97;99361.86;103584;1300;24184;-29
2022/01/21 00:08:15;;;;;;;8.40;1.40;;;;;;;-3.25;85.24;99360.84;103578;1300;24375;-28
2022/01/21 00:10:41;;;;;;;3.50;0.70;;;;;;;-3.18;85.09;99369.66;103443;1302;24310;-29
2022/01/21 00:13:17;;;;;;;4.40;1.30;;;;;;;-3.12;84.77;99372.73;103561;1303;24186;-28
2022/01/21 00:15:42;;;;;;;3.00;0.60;;;;;;;-3.06;84.45;99378.38;103546;1300;24253;-30
2022/01/21 00:18:09;;;;;;;6.60;2.10;;;;;;;-3.02;83.87;99379.48;103532;1300;24221;-26
2022/01/21 00:30:32;;;;;;;3.20;1.20;;;;;;;-3.28;85.00;99394.52;103543;1302;22536;-29
2022/01/21 00:32:57;;;;;;;12.10;1.60;;;;;;;-2.94;83.38;99388.92;103488;1302;22725;-26
2022/01/21 00:35:23;;;;;;;2.70;1.60;;;;;;;-2.78;82.36;99398.28;103599;1300;24338;-28
2022/01/21 00:37:49;;;;;;;2.20;1.00;;;;;;;-3.18;83.39;99401.14;103530;1302;24214;-27
2022/01/21 00:40:18;;;;;;;3.80;1.30;;;;;;;-3.10;83.34;99402.00;103511;1300;24226;-29
2022/01/21 00:42:52;;;;;;;13.50;1.20;;;;;;;-3.06;82.25;99393.42;103569;1300;22841;-29
2022/01/21 00:45:19;;;;;;;4.10;0.60;;;;;;;-3.46;84.14;99409.42;103485;1302;24305;-28
2022/01/21 00:47:45;;;;;;;8.10;1.50;;;;;;;-3.50;84.48;99411.14;103573;1302;24293;-25
2022/01/21 00:50:12;;;;;;;5.40;0.80;;;;;;;-3.23;83.41;99409.02;103559;1302;24320;-26
2022/01/21 00:52:38;;;;;;;1.70;0.80;;;;;;;-3.38;83.55;99415.69;103562;1300;24172;-28
2022/01/21 00:55:05;;;;;;;3.50;0.40;;;;;;;-3.36;83.75;99410.66;103564;1300;24303;-26
2022/01/21 00:57:30;;;;;;;3.60;1.10;;;;;;;-3.45;84.27;99433.67;103556;1300;22528;-26
2022/01/21 00:59:56;;;;;;;5.30;0.90;;;;;;;-3.43;84.51;99436.68;103507;1300;24302;-29
2022/01/21 01:02:22;;;;;;;1.00;0.40;;;;;;;-3.30;84.34;99443.50;103545;1300;24296;-26
2022/01/21 01:04:48;;;;;;;1.00;0.50;;;;;;;-3.20;83.51;99439.33;103530;1300;24352;-28
2022/01/21 01:07:13;;;;;;;1.40;0.60;;;;;;;-3.30;83.99;99446.29;103550;1300;24186;-29
2022/01/21 01:09:41;;;;;;;1.90;0.60;;;;;;;-3.23;83.87;99440.75;103473;1300;22508;-27
2022/01/21 01:12:19;;;;;;;3.40;1.40;;;;;;;-3.23;83.87;99444.45;103588;1300;24196;-25
2022/01/21 01:22:14;;;;;;;5.50;0.60;;;;;;;-3.23;83.02;99451.23;103568;1300;22751;-26
2022/01/21 01:29:40;;;;;;;13.00;0.90;;;;;;;-3.27;83.16;99456.06;103488;1300;24357;-26
2022/01/21 01:32:06;;;;;;;2.80;1.40;;;;;;;-3.25;82.19;99460.99;103582;1300;24186;-26
2022/01/21 01:34:32;;;;;;;1.70;0.70;;;;;;;-3.40;82.60;99466.27;103444;1302;24422;-26
2022/01/21 01:37:02;;;;;;;2.30;0.80;;;;;;;-3.69;83.58;99467.41;103516;1300;24305;-30
2022/01/21 01:39:35;;;;;;;3.50;1.00;;;;;;;-3.67;83.50;99460.05;103564;1300;24186;-27
2022/01/21 01:42:34;;;;;;;3.80;1.70;;;;;;;-3.67;83.05;99460.80;103553;1300;24217;-28
2022/01/21 01:49:52;;;;;;;1.30;0.70;;;;;;;-3.59;82.88;99457.44;103525;1300;24362;-28
2022/01/21 01:52:19;;;;;;;1.80;0.70;;;;;;;-3.65;82.67;99460.42;103589;1300;24194;-28
2022/01/21 01:54:49;;;;;;;1.90;0.60;;;;;;;-3.74;83.06;99469.84;103537;1300;24323;-29
2022/01/21 01:57:15;;;;;;;2.40;0.50;;;;;;;-3.98;83.46;99465.12;103583;1300;24313;-28
2022/01/21 01:59:41;;;;;;;1.60;0.80;;;;;;;-3.73;82.80;99468.17;103552;1300;24209;-28
2022/01/21 02:02:09;;;;;;;6.30;1.40;;;;;;;-3.85;83.16;99464.23;103592;1300;24342;-28
2022/01/21 02:04:35;;;;;;;3.40;1.20;;;;;;;-3.73;82.83;99460.50;103499;1302;24276;-25
2022/01/21 02:07:01;;;;;;;5.60;1.10;;;;;;;-3.80;83.17;99465.13;103574;1300;24310;-27
2022/01/21 02:09:27;;;;;;;4.30;0.80;;;;;;;-3.74;82.75;99467.17;103540;1300;22693;-28
2022/01/21 02:11:54;;;;;;;2.20;0.90;;;;;;;-3.90;83.77;99467.73;103475;1300;24307;-25
2022/01/21 02:14:23;;;;;;;5.20;0.80;;;;;;;-3.38;81.18;99466.30;103546;1300;24233;-28
2022/01/21 02:21:48;;;;;;;18.70;1.10;;;;;;;-3.80;82.93;99491.20;103523;1300;24256;-28
2022/01/21 02:24:19;;;;;;;5.00;1.50;;;;;;;-3.78;82.67;99487.02;103494;1302;24340;-25
2022/01/21 02:26:46;;;;;;;3.60;0.90;;;;;;;-3.63;82.38;99488.31;103520;1300;22647;-25
2022/01/21 02:29:15;;;;;;;9.20;2.30;;;;;;;-3.78;82.50;99487.40;103518;1302;24337;-25
2022/01/21 02:31:41;;;;;;;2.60;0.90;;;;;;;-3.64;82.21;99489.63;103598;1300;24325;-26
2022/01/21 02:34:07;;;;;;;8.80;2.40;;;;;;;-4.00;83.66;99493.41;103565;1302;24189;-25
2022/01/21 02:36:33;;;;;;;20.70;1.40;;;;;;;-3.68;82.74;99488.45;103408;1301;24303;-25
2022/01/21 02:38:58;;;;;;;0.80;0.50;;;;;;;-3.75;82.84;99491.40;103509;1300;24153;-27
2022/01/21 02:41:24;;;;;;;2.60;0.70;;;;;;;-3.86;83.13;99489.86;103471;1302;24278;-25
2022/01/21 02:43:50;;;;;;;5.20;1.10;;;;;;;-3.97;83.60;99497.45;103559;1300;24186;-28
2022/01/21 02:46:17;;;;;;;2.00;0.90;;;;;;;-4.21;85.09;99497.94;103505;1300;24247;-25
2022/01/21 02:48:43;;;;;;;8.80;1.40;;;;;;;-3.90;83.53;99492.06;103507;1300;24301;-25
2022/01/21 02:51:11;;;;;;;1.50;0.70;;;;;;;-3.81;83.66;99494.44;103431;1300;22508;-28
2022/01/21 02:56:10;;;;;;;1.80;0.60;;;;;;;-4.20;84.99;99502.59;103535;1300;24384;-25
2022/01/21 02:58:36;;;;;;;2.90;0.90;;;;;;;-3.99;84.83;99501.76;103543;1300;22511;-29
2022/01/21 03:01:02;;;;;;;5.70;1.10;;;;;;;-3.83;84.08;99503.35;103494;1300;24223;-25
2022/01/21 03:03:28;;;;;;;6.90;0.90;;;;;;;-3.83;84.24;99497.92;103582;1300;22521;-28
2022/01/21 03:05:53;;;;;;;2.40;0.50;;;;;;;-3.95;84.39;99499.95;103545;1300;24442;-29
2022/01/21 03:08:19;;;;;;;1.90;0.60;;;;;;;-3.96;84.48;99504.02;103560;1300;24393;-28
2022/01/21 03:10:45;;;;;;;1.80;1.00;;;;;;;-3.80;83.59;99508.00;103418;1300;24268;-25
2022/01/21 03:13:11;;;;;;;0.80;0.20;;;;;;;-4.00;83.73;99508.95;103561;1300;24365;-29
2022/01/21 03:15:37;;;;;;;1.90;0.70;;;;;;;-3.88;83.58;99507.30;103580;1300;24227;-25
2022/01/21 03:18:03;;;;;;;1.10;0.40;;;;;;;-3.78;82.59;99508.39;103532;1301;24236;-28
2022/01/21 03:20:28;;;;;;;10.50;0.80;;;;;;;-3.77;83.26;99521.96;103575;1300;24202;-25
2022/01/21 03:22:54;;;;;;;15.10;1.30;;;;;;;-3.68;82.21;99517.31;103477;1300;24414;-25
2022/01/21 03:25:20;;;;;;;3.70;0.60;;;;;;;-3.57;81.75;99522.02;103557;1300;24304;-28
2022/01/21 03:27:46;;;;;;;2.50;1.10;;;;;;;-3.55;81.62;99518.38;103611;1300;24705;-25
2022/01/21 03:30:12;;;;;;;8.80;0.90;;;;;;;-3.53;81.38;99529.95;103686;1300;24305;-28
2022/01/21 03:32:38;;;;;;;8.60;0.70;;;;;;;-3.54;81.48;99531.30;103450;1300;24445;-28
2022/01/21 03:35:04;;;;;;;5.90;1.50;;;;;;;-3.42;81.20;99533.25;103547;1300;24228;-28
2022/01/21 03:37:30;;;;;;;1.10;0.20;;;;;;;-3.40;80.38;99523.99;103592;1300;24189;-26
2022/01/21 03:39:56;;;;;;;0.70;0.30;;;;;;;-3.47;80.74;99528.02;103483;1301;24198;-25
2022/01/21 03:42:21;;;;;;;2.10;0.50;;;;;;;-3.74;81.64;99527.23;103486;1301;24325;-27
2022/01/21 03:44:47;;;;;;;1.00;0.40;;;;;;;-3.82;82.21;99531.77;103505;1300;24155;-26
2022/01/21 03:47:12;;;;;;;1.00;0.40;;;;;;;-3.64;81.46;99535.09;103522;1300;24402;-26
2022/01/21 03:49:48;;;;;;;0.90;0.10;;;;;;;-3.40;80.20;99538.05;103533;1300;24285;-25
2022/01/21 03:52:14;;;;;;;2.30;0.60;;;;;;;-3.67;81.18;99539.36;103514;1300;24240;-26
2022/01/21 03:54:39;;;;;;;1.60;0.50;;;;;;;-3.53;81.01;99541.91;103492;1300;24229;-29
2022/01/21 03:57:05;;;;;;;0.70;0.20;;;;;;;-3.59;80.77;99539.11;103487;1300;22636;-26
2022/01/21 03:59:31;;;;;;;5.40;0.80;;;;;;;-3.73;81.47;99539.75;103592;1300;24239;-25
2022/01/21 04:01:57;;;;;;;4.30;0.60;;;;;;;-3.44;80.72;99534.09;103527;1300;24272;-28
2022/01/21 04:04:23;;;;;;;4.00;0.20;;;;;;;-3.27;79.37;99529.43;103572;1300;24273;-26
2022/01/21 04:06:48;;;;;;;1.70;0.40;;;;;;;-3.64;81.02;99529.67;103573;1300;24323;-28
2022/01/21 04:09:15;;;;;;;1.60;0.40;;;;;;;-3.57;81.46;99526.57;103030;1300;692172;-25
2022/01/21 04:11:41;;;;;;;0.80;0.20;;;;;;;-3.37;80.05;99523.66;103491;1301;24202;-26
2022/01/21 04:14:07;;;;;;;0.90;0.40;;;;;;;-3.39;80.37;99530.98;103485;1300;24276;-29
2022/01/21 04:16:33;;;;;;;1.70;0.40;;;;;;;-3.24;79.53;99529.58;103550;1300;24322;-28
2022/01/21 04:18:59;;;;;;;7.30;0.60;;;;;;;-3.45;80.12;99532.23;103506;1300;24170;-28
2022/01/21 04:21:24;;;;;;;3.90;0.80;;;;;;;-3.32;79.96;99526.61;103551;1300;22512;-28
2022/01/21 04:23:50;;;;;;;3.20;0.90;;;;;;;-3.26;80.30;99531.66;103579;1300;24194;-29
2022/01/21 04:26:16;;;;;;;0.60;0.50;;;;;;;-3.34;80.78;99523.42;103640;1300;24277;-26
2022/01/21 04:28:41;;;;;;;5.50;0.60;;;;;;;-3.33;80.82;99527.56;103597;1300;24368;-27
2022/01/21 04:31:07;;;;;;;4.50;0.70;;;;;;;-3.11;79.90;99526.59;103505;1300;24397;-30
2022/01/21 04:33:33;;;;;;;3.60;0.80;;;;;;;-2.97;79.07;99527.14;103621;1300;24223;-30
2022/01/21 04:35:58;;;;;;;1.10;0.20;;;;;;;-3.07;79.66;99535.23;103678;1300;24294;-28
2022/01/21 04:38:25;;;;;;;1.30;0.50;;;;;;;-2.87;79.19;99531.70;103687;1300;24364;-28
2022/01/21 04:40:59;;;;;;;10.50;0.90;;;;;;;-2.76;78.51;99524.96;103614;1300;24185;-25
2022/01/21 04:48:23;;;;;;;7.70;1.20;;;;;;;-3.06;80.41;99545.16;103602;1300;24329;-29
2022/01/21 04:53:18;;;;;;;7.80;1.20;;;;;;;-3.04;80.34;99536.06;103603;1299;24329;-26
2022/01/21 04:55:45;;;;;;;11.90;0.60;;;;;;;-2.58;78.64;99542.13;103835;1300;22948;-25
2022/01/21 04:58:11;;;;;;;5.10;0.50;;;;;;;-2.81;79.28;99542.17;103645;1300;25287;-28
2022/01/21 05:00:37;;;;;;;0.90;0.30;;;;;;;-2.93;80.24;99546.86;103437;1302;22507;-26
2022/01/21 05:03:03;;;;;;;3.70;1.60;;;;;;;-2.79;80.18;99551.64;103595;1300;22512;-26
2022/01/21 05:05:29;;;;;;;2.70;0.70;;;;;;;-2.92;80.41;99550.46;103608;1300;24292;-26
2022/01/21 05:07:55;;;;;;;3.80;0.60;;;;;;;-2.82;80.33;99548.73;103631;1300;24301;-25
2022/01/21 05:10:24;;;;;;;9.40;3.20;;;;;;;-2.90;80.59;99553.86;103611;1300;24263;-26
2022/01/21 05:12:49;;;;;;;3.30;1.00;;;;;;;-2.73;79.76;99551.06;103669;1300;22793;-26
2022/01/21 05:15:23;;;;;;;3.30;1.40;;;;;;;-2.67;79.60;99558.02;103644;1299;24257;-28
2022/01/21 05:17:49;;;;;;;1.70;0.70;;;;;;;-2.64;79.15;99555.83;103555;1299;24345;-27
2022/01/21 05:20:16;;;;;;;6.50;1.10;;;;;;;-2.80;80.01;99564.33;103580;1300;24286;-30
2022/01/21 05:22:42;;;;;;;0.80;0.50;;;;;;;-2.69;79.83;99559.92;103558;1300;24225;-30
2022/01/21 05:25:08;;;;;;;4.60;1.00;;;;;;;-2.76;80.36;99553.23;103532;1300;24404;-25
2022/01/21 05:27:34;;;;;;;7.00;0.90;;;;;;;-2.65;79.61;99557.68;103585;1299;22509;-29
2022/01/21 05:30:00;;;;;;;16.30;0.70;;;;;;;-2.52;79.52;99556.73;103518;1300;24351;-29
2022/01/21 05:32:26;;;;;;;16.20;1.00;;;;;;;-2.58;79.70;99567.20;103573;1300;24275;-28
2022/01/21 05:34:52;;;;;;;8.00;0.80;;;;;;;-2.74;79.79;99568.14;103596;1300;24218;-26
2022/01/21 05:37:18;;;;;;;2.30;0.60;;;;;;;-2.78;80.55;99568.77;103613;1300;23892;-29
2022/01/21 05:39:45;;;;;;;0.80;0.30;;;;;;;-2.81;80.51;99575.09;103542;1300;24280;-27
2022/01/21 05:42:11;;;;;;;5.20;0.60;;;;;;;-2.47;79.30;99569.74;103613;1301;24359;-29
2022/01/21 05:47:05;;;;;;;5.50;1.30;;;;;;;-2.75;80.95;99570.48;103547;1300;24223;-26
2022/01/21 05:49:31;;;;;;;1.00;0.50;;;;;;;-2.44;78.69;99570.05;103577;1300;24279;-29
2022/01/21 05:54:27;;;;;;;4.90;0.80;;;;;;;-2.33;78.62;99574.86;103556;1300;24215;-29
2022/01/21 05:56:53;;;;;;;3.00;0.80;;;;;;;-2.43;78.37;99580.50;103465;1301;24266;-26
2022/01/21 05:59:18;;;;;;;6.80;1.50;;;;;;;-2.56;78.93;99585.61;103611;1300;24195;-26
2022/01/21 06:01:44;;;;;;;2.30;0.70;;;;;;;-2.30;77.62;99576.55;103478;1300;24312;-26
2022/01/21 06:04:10;;;;;;;3.60;1.20;;;;;;;-2.47;78.40;99587.05;103506;1300;22813;-29
2022/01/21 06:06:36;;;;;;;7.10;1.70;;;;;;;-2.35;78.10;99580.08;103594;1300;24714;-26
2022/01/21 06:09:03;;;;;;;1.20;0.30;;;;;;;-2.81;79.81;99587.38;103571;1302;24231;-26
2022/01/21 06:11:28;;;;;;;4.20;1.70;;;;;;;-2.58;78.63;99580.48;103505;1301;24202;-29
2022/01/21 06:13:54;;;;;;;4.50;0.60;;;;;;;-2.53;78.40;99580.70;103517;1300;24225;-29
2022/01/21 06:16:20;;;;;;;0.60;0.20;;;;;;;-2.55;78.53;99587.45;103521;1300;24174;-29
2022/01/21 06:18:45;;;;;;;1.60;0.40;;;;;;;-2.60;78.76;99592.35;103527;1300;24377;-26
2022/01/21 06:21:11;;;;;;;8.70;1.60;;;;;;;-2.64;78.69;99580.58;103571;1300;24140;-26
2022/01/21 06:23:37;;;;;;;2.20;0.60;;;;;;;-2.87;80.06;99593.72;103579;1300;24286;-25
2022/01/21 06:26:03;;;;;;;10.60;0.80;;;;;;;-2.38;78.25;99591.17;103594;1300;24331;-25
2022/01/21 06:28:29;;;;;;;3.30;0.40;;;;;;;-2.30;77.91;99591.27;103507;1300;24318;-25
2022/01/21 06:30:55;;;;;;;19.30;0.90;;;;;;;-2.24;77.45;99595.77;103650;1300;24196;-28
2022/01/21 06:33:20;;;;;;;4.30;1.10;;;;;;;-2.44;77.78;99594.73;103565;1302;24213;-26
2022/01/21 06:35:48;;;;;;;3.70;0.80;;;;;;;-2.37;77.48;99604.92;103557;1300;24183;-26
2022/01/21 06:38:14;;;;;;;3.00;1.10;;;;;;;-2.23;76.78;99595.05;103543;1301;22734;-25
2022/01/21 06:40:40;;;;;;;4.60;1.00;;;;;;;-2.40;77.05;99602.58;103528;1300;24352;-28
2022/01/21 06:43:05;;;;;;;17.20;1.60;;;;;;;-2.35;77.62;99609.06;103545;1300;24379;-31
2022/01/21 06:45:31;;;;;;;4.60;0.40;;;;;;;-2.18;76.69;99606.77;103479;1300;24288;-29
2022/01/21 06:47:58;;;;;;;6.70;0.50;;;;;;;-2.37;77.43;99614.94;103517;1301;24296;-29
2022/01/21 06:50:25;;;;;;;4.40;1.60;;;;;;;-2.74;78.97;99619.88;103540;1302;24273;-26
2022/01/21 06:52:51;;;;;;;6.80;1.60;;;;;;;-2.32;77.47;99616.20;103399;1301;22771;-26
2022/01/21 06:55:17;;;;;;;3.60;0.70;;;;;;;-1.98;75.70;99606.15;103555;1300;22961;-28
2022/01/21 06:57:43;;;;;;;1.30;0.30;;;;;;;-2.07;75.85;99617.37;103569;1302;24190;-26
2022/01/21 07:00:10;;;;;;;4.50;1.30;;;;;;;-2.22;76.58;99616.29;103518;1300;24421;-26
2022/01/21 07:02:36;;;;;;;5.40;0.20;;;;;;;-2.28;76.26;99613.44;103533;1300;24236;-30
2022/01/21 07:05:04;;;;;;;5.70;1.90;;;;;;;-2.27;77.03;99624.56;103547;1300;24175;-27
2022/01/21 07:07:30;;;;;;;2.80;0.40;;;;;;;-2.38;77.10;99616.60;103606;1300;24217;-28
2022/01/21 07:09:56;;;;;;;6.80;1.80;;;;;;;-2.71;78.47;99628.94;103457;1302;24275;-26
2022/01/21 07:12:22;;;;;;;2.50;0.40;;;;;;;-2.31;77.12;99628.23;103557;1300;24335;-25
2022/01/21 07:14:48;;;;;;;6.20;0.60;;;;;;;-2.37;77.38;99623.73;103379;1301;24219;-26
2022/01/21 07:17:13;;;;;;;7.30;1.30;;;;;;;-2.25;76.74;99632.55;103537;1300;24223;-25
2022/01/21 07:19:39;;;;;;;12.40;1.70;;;;;;;-2.22;77.04;99637.35;103528;1300;24177;-29
2022/01/21 07:22:05;;;;;;;7.10;0.90;;;;;;;-1.84;75.76;99630.98;103503;1300;24435;-27
2022/01/21 07:24:31;;;;;;;3.00;1.00;;;;;;;-2.35;77.01;99628.48;103505;1302;24608;-26
2022/01/21 07:26:57;;;;;;;3.60;1.60;;;;;;;-2.21;76.83;99635.36;103473;1301;24346;-30
2022/01/21 07:29:23;;;;;;;10.10;0.40;;;;;;;-1.80;74.64;99627.67;103495;1300;24193;-25
2022/01/21 07:31:53;;;;;;;5.30;1.70;;;;;;;-1.92;74.90;99627.86;103548;1300;24261;-25
2022/01/21 07:34:20;;;;;;;4.30;1.00;;;;;;;-2.14;76.03;99631.05;103508;1300;24176;-25
2022/01/21 07:36:45;;;;;;;5.60;1.40;;;;;;;-1.72;74.51;99635.14;103512;1302;24342;-24
2022/01/21 07:39:11;;;;;;;4.30;0.80;;;;;;;-1.89;75.33;99633.77;103511;1300;24364;-30
2022/01/21 07:41:37;;;;;;;3.20;0.90;;;;;;;-1.80;74.93;99629.11;103472;1300;24330;-29
2022/01/21 07:44:02;;;;;;;1.40;0.70;;;;;;;-2.13;76.20;99638.69;103515;1300;24182;-28
2022/01/21 07:46:28;;;;;;;2.80;1.30;;;;;;;-1.85;75.49;99642.95;103494;1302;24298;-25
2022/01/21 07:48:56;;;;;;;8.90;0.60;;;;;;;-1.80;75.04;99639.98;103533;1300;24280;-27
2022/01/21 07:51:22;;;;;;;6.90;0.90;;;;;;;-1.90;75.62;99640.19;103576;1300;24352;-28
2022/01/21 07:53:48;;;;;;;4.60;1.00;;;;;;;-1.85;75.15;99641.70;103499;1300;24403;-31
2022/01/21 07:56:14;;;;;;;4.00;1.40;;;;;;;-1.81;75.22;99634.58;103486;1300;24305;-28
2022/01/21 07:58:41;;;;;;;8.60;2.00;;;;;;;-1.62;74.20;99642.34;103528;1300;24376;-25
2022/01/21 08:01:06;;;;;;;11.30;0.70;;;;;;;-1.52;73.91;99632.95;103560;1302;24196;-28
2022/01/21 08:03:32;;;;;;;8.40;2.40;;;;;;;-1.87;74.92;99634.33;103490;1300;24210;-26
2022/01/21 08:05:58;;;;;;;22.20;7.60;;;;;;;-1.71;74.51;99635.81;103563;1300;24202;-26
2022/01/21 08:08:26;;;;;;;6.20;1.80;;;;;;;-1.90;75.67;99646.27;103612;1302;24256;-28
2022/01/21 08:10:53;;;;;;;2.80;1.40;;;;;;;-1.84;75.67;99638.85;103528;1302;24217;-30
2022/01/21 08:13:19;;;;;;;12.00;2.20;;;;;;;-1.79;75.02;99638.33;103542;1301;24178;-29
2022/01/21 08:15:44;;;;;;;26.10;5.00;;;;;;;-1.36;73.07;99636.74;103493;1302;24444;-29
2022/01/21 08:18:10;;;;;;;12.80;3.30;;;;;;;-1.78;74.81;99637.36;103487;1302;24332;-25
2022/01/21 08:20:36;;;;;;;6.80;1.10;;;;;;;-1.68;74.55;99643.81;103562;1300;24304;-29
2022/01/21 08:23:02;;;;;;;23.50;3.80;;;;;;;-1.86;74.98;99644.45;103578;1300;24342;-30
2022/01/21 08:25:28;;;;;;;11.10;2.80;;;;;;;-2.03;75.95;99645.85;103675;1300;24184;-25
2022/01/21 08:27:53;;;;;;;17.30;6.00;;;;;;;-1.65;74.69;99641.16;103573;1300;22527;-29
2022/01/21 08:30:19;;;;;;;12.50;5.30;;;;;;;-1.35;73.75;99648.03;103534;1300;22645;-25
2022/01/21 08:32:45;;;;;;;54.10;10.60;;;;;;;-1.42;74.01;99652.90;103558;1300;22573;-25
2022/01/21 08:35:11;;;;;;;32.10;8.30;;;;;;;-1.60;74.25;99653.94;103564;1302;22515;-28
2022/01/21 08:37:37;;;;;;;14.70;4.20;;;;;;;-1.69;74.51;99656.89;103579;1301;24303;-29
2022/01/21 08:40:04;;;;;;;14.90;4.80;;;;;;;-1.53;74.20;99649.35;103588;1300;24285;-29
2022/01/21 08:42:29;;;;;;;16.00;5.60;;;;;;;-1.54;74.53;99646.69;103580;1300;24332;-26
2022/01/21 08:44:55;;;;;;;32.10;13.90;;;;;;;-1.72;75.31;99655.89;103487;1302;24186;-26
2022/01/21 08:47:22;;;;;;;30.50;10.90;;;;;;;-1.47;74.65;99660.36;103615;1300;24407;-30
2022/01/21 08:49:50;;;;;;;7.30;3.80;;;;;;;-1.35;74.39;99664.73;103597;1300;24274;-25
2022/01/21 08:52:20;;;;;;;3.90;1.10;;;;;;;-1.33;73.35;99671.65;103510;1300;24344;-25
2022/01/21 08:54:47;;;;;;;8.00;2.80;;;;;;;-1.79;74.72;99673.08;103551;1302;24146;-26
2022/01/21 08:57:13;;;;;;;5.70;2.20;;;;;;;-1.21;72.97;99669.13;103560;1300;24244;-29
2022/01/21 08:59:39;;;;;;;8.80;1.90;;;;;;;-1.64;74.14;99678.66;103612;1301;24224;-25
2022/01/21 09:02:05;;;;;;;8.10;1.40;;;;;;;-1.64;74.69;99677.45;103498;1302;24286;-30
2022/01/21 09:04:32;;;;;;;3.00;1.10;;;;;;;-1.65;74.54;99676.20;103582;1300;24274;-25
2022/01/21 09:06:58;;;;;;;2.90;0.60;;;;;;;-1.39;73.24;99665.38;103500;1300;24410;-30
2022/01/21 09:09:25;;;;;;;3.10;0.70;;;;;;;-1.66;73.86;99677.23;103509;1300;24189;-26
2022/01/21 09:11:53;;;;;;;26.20;1.90;;;;;;;-1.80;74.29;99679.98;103602;1300;24369;-26
2022/01/21 09:14:19;;;;;;;4.20;1.40;;;;;;;-1.86;74.87;99687.63;103500;1301;24377;-29
2022/01/21 09:16:44;;;;;;;6.00;1.90;;;;;;;-1.72;74.33;99679.41;103545;1300;22515;-30
2022/01/21 09:19:10;;;;;;;4.40;0.80;;;;;;;-1.45;72.72;99672.34;103537;1300;24217;-29
2022/01/21 09:21:37;;;;;;;7.10;1.30;;;;;;;-1.63;73.24;99675.42;103596;1300;24275;-29
2022/01/21 09:24:04;;;;;;;4.10;1.20;;;;;;;-1.56;72.90;99682.47;103533;1300;24175;-29
2022/01/21 09:26:30;;;;;;;10.90;0.80;;;;;;;-1.33;71.94;99680.56;103496;1300;24030;-29
2022/01/21 09:28:57;;;;;;;2.20;0.60;;;;;;;-1.21;71.64;99680.89;103562;1300;24312;-25
2022/01/21 09:31:23;;;;;;;2.90;0.90;;;;;;;-1.04;71.21;99679.43;103632;1302;24136;-26
2022/01/21 09:33:49;;;;;;;2.40;0.80;;;;;;;-1.07;71.20;99678.66;103505;1302;24217;-28
2022/01/21 09:36:16;;;;;;;2.40;0.70;;;;;;;-1.03;71.36;99683.98;103538;1300;24173;-28
2022/01/21 09:38:42;;;;;;;2.70;0.40;;;;;;;-0.99;70.09;99674.86;103570;1300;22539;-30
2022/01/21 09:41:09;;;;;;;1.80;0.70;;;;;;;-1.02;70.37;99677.54;103595;1302;24185;-29
2022/01/21 09:43:34;;;;;;;2.60;0.70;;;;;;;-0.91;69.60;99676.91;103563;1300;24200;-26
2022/01/21 09:46:05;;;;;;;7.00;1.80;;;;;;;-0.90;70.48;99688.71;103835;1300;24317;-26
2022/01/21 09:48:35;;;;;;;5.40;1.80;;;;;;;-0.69;69.41;99684.73;103504;1302;24018;-25
2022/01/21 09:51:02;;;;;;;10.40;1.10;;;;;;;-1.16;70.66;99687.92;103570;1300;24209;-25
2022/01/21 09:53:30;;;;;;;5.50;0.80;;;;;;;-1.18;70.94;99689.45;103593;1300;24283;-26
2022/01/21 09:55:57;;;;;;;8.50;2.90;;;;;;;-1.08;71.10;99692.21;103532;1300;24326;-25
2022/01/21 09:58:23;;;;;;;5.20;1.90;;;;;;;-1.06;70.48;99680.15;103891;1302;22517;-25
2022/01/21 10:00:50;;;;;;;5.10;2.40;;;;;;;-1.02;70.25;99683.30;103507;1300;24248;-29
2022/01/21 10:03:16;;;;;;;5.30;0.50;;;;;;;-1.16;69.79;99673.71;103559;1300;24174;-29
2022/01/21 10:05:46;;;;;;;4.20;1.00;;;;;;;-1.17;70.37;99677.95;103594;1300;24353;-28
2022/01/21 10:08:13;;;;;;;11.60;0.50;;;;;;;-1.19;70.41;99679.52;103589;1300;24523;-31
2022/01/21 10:10:40;;;;;;;60.40;4.60;;;;;;;-1.26;71.20;99684.11;103528;1302;24215;-31
2022/01/21 10:13:08;;;;;;;15.50;1.60;;;;;;;-1.11;70.89;99677.89;103521;1300;22523;-31
2022/01/21 10:15:34;;;;;;;2.90;1.00;;;;;;;-1.13;70.29;99675.77;103613;1302;24317;-25
2022/01/21 10:18:04;;;;;;;20.70;7.90;;;;;;;-1.18;69.50;99672.76;103556;1300;24287;-27
2022/01/21 10:20:29;;;;;;;6.60;2.10;;;;;;;-0.47;68.11;99672.61;103609;1302;23973;-29
2022/01/21 10:22:59;;;;;;;12.60;1.90;;;;;;;-0.66;68.57;99677.08;103865;1302;22723;-29
2022/01/21 10:25:25;;;;;;;5.60;2.60;;;;;;;-0.93;70.03;99678.09;103732;1303;22650;-30
2022/01/21 10:27:51;;;;;;;15.20;2.90;;;;;;;-0.67;68.64;99676.61;103623;1301;24236;-29
2022/01/21 10:30:22;;;;;;;5.10;1.50;;;;;;;-1.00;69.60;99676.17;103497;1302;22511;-26
2022/01/21 10:32:48;;;;;;;15.70;4.10;;;;;;;-1.18;70.23;99676.98;103642;1302;23272;-26
2022/01/21 10:35:20;;;;;;;14.10;3.60;;;;;;;-0.65;68.40;99680.90;103560;1302;24425;-29
2022/01/21 10:37:46;;;;;;;8.80;1.50;;;;;;;-0.83;68.01;99676.09;103612;1302;24043;-31
2022/01/21 10:40:12;;;;;;;4.50;2.00;;;;;;;-1.29;69.62;99679.42;103555;1302;22651;-26
2022/01/21 10:42:38;;;;;;;6.40;2.40;;;;;;;-1.33;70.21;99680.89;103618;1302;24367;-30
2022/01/21 10:45:06;;;;;;;14.20;4.00;;;;;;;-0.79;67.90;99683.18;103542;1302;24253;-25
2022/01/21 10:47:34;;;;;;;19.50;7.20;;;;;;;-0.84;68.82;99684.59;103731;1300;22795;-28
2022/01/21 10:50:03;;;;;;;43.40;7.50;;;;;;;-0.68;67.75;99686.77;103551;1302;24397;-29
2022/01/21 10:52:32;;;;;;;22.20;7.10;;;;;;;-0.56;66.81;99676.16;103605;1302;24377;-29
2022/01/21 10:54:58;;;;;;;15.80;3.60;;;;;;;-0.98;68.27;99680.04;103583;1302;22512;-30
2022/01/21 10:57:25;;;;;;;16.60;5.60;;;;;;;-0.80;68.53;99678.86;103562;1301;22722;-29
2022/01/21 10:59:54;;;;;;;21.60;6.20;;;;;;;-1.00;68.79;99684.45;103692;1302;24429;-29
2022/01/21 11:02:26;;;;;;;15.50;5.10;;;;;;;-0.90;67.87;99679.25;103609;1302;22502;-29
2022/01/21 11:04:52;;;;;;;23.10;4.40;;;;;;;-1.18;69.80;99680.34;103635;1302;24320;-26
2022/01/21 11:07:29;;;;;;;7.80;3.30;;;;;;;-1.00;69.75;99680.95;103452;1303;24351;-26
2022/01/21 11:09:55;;;;;;;11.40;1.60;;;;;;;-1.12;69.88;99677.59;103590;1302;24344;-25
2022/01/21 11:12:22;;;;;;;6.10;2.50;;;;;;;-0.90;68.94;99678.05;103525;1302;23927;-29
2022/01/21 11:14:57;;;;;;;10.80;3.30;;;;;;;-1.16;70.01;99677.05;103530;1302;24211;-25
2022/01/21 11:17:23;;;;;;;6.60;1.60;;;;;;;-1.44;70.42;99676.61;103401;1302;23012;-29
2022/01/21 11:19:57;;;;;;;9.70;2.30;;;;;;;-1.61;72.69;99679.80;103464;1302;24355;-30
2022/01/21 11:22:23;;;;;;;9.90;3.90;;;;;;;-1.55;71.83;99673.98;103532;1302;24214;-29
2022/01/21 11:24:49;;;;;;;8.30;4.20;;;;;;;-1.65;72.75;99660.28;103472;1301;24430;-25
2022/01/21 11:27:16;;;;;;;5.50;1.00;;;;;;;-1.54;71.74;99659.10;103417;1301;22613;-28
2022/01/21 11:29:43;;;;;;;2.60;0.70;;;;;;;-1.80;73.11;99668.93;103518;1302;24275;-30
2022/01/21 11:32:09;;;;;;;4.80;2.70;;;;;;;-1.32;71.41;99653.63;103514;1301;24333;-26
2022/01/21 11:34:35;;;;;;;5.50;1.70;;;;;;;-0.91;69.30;99653.99;103480;1302;24182;-26
2022/01/21 11:37:01;;;;;;;5.20;0.80;;;;;;;-1.03;69.64;99657.90;103447;1301;24328;-26
2022/01/21 11:39:27;;;;;;;16.70;1.30;;;;;;;-1.31;70.80;99646.70;103507;1302;24299;-29
2022/01/21 11:41:55;;;;;;;6.90;1.50;;;;;;;-1.11;70.18;99649.10;103506;1302;24217;-29
2022/01/21 11:44:24;;;;;;;5.20;0.80;;;;;;;-1.45;71.48;99647.20;103473;1301;24231;-26
2022/01/21 11:49:20;;;;;;;3.70;0.80;;;;;;;-1.29;71.79;99641.09;103545;1302;22518;-26
2022/01/21 11:51:45;;;;;;;4.40;1.40;;;;;;;-0.92;70.19;99639.55;103571;1302;24374;-26
2022/01/21 11:54:13;;;;;;;5.50;1.00;;;;;;;-0.49;67.33;99631.77;103441;1301;24309;-26
2022/01/21 11:56:46;;;;;;;2.70;0.50;;;;;;;-0.28;66.15;99628.35;103558;1302;24455;-26
2022/01/21 11:59:30;;;;;;;4.80;1.00;;;;;;;-0.38;65.99;99630.77;103552;1302;24332;-29
2022/01/21 12:01:57;;;;;;;7.00;0.40;;;;;;;-0.62;67.21;99625.92;103449;1302;23208;-23
2022/01/21 12:04:29;;;;;;;5.20;1.10;;;;;;;-1.16;69.26;99628.70;103420;1302;24182;-27
2022/01/21 12:06:56;;;;;;;0.90;0.60;;;;;;;-0.99;68.59;99631.44;103446;1302;24331;-29
2022/01/21 12:09:45;;;;;;;5.20;1.20;;;;;;;-1.14;68.41;99626.27;103085;1302;600831;-31
2022/01/21 12:12:10;;;;;;;13.70;3.70;;;;;;;-1.05;68.21;99619.75;103441;1301;24400;-25